Airfield :
LOGIN :

Register | Disclaimer

   EN    FR    IT 

 










Legend :    VFR   Marginal VFR   IFR   Intensive IFR   Very Intensive IFR
Visi :
Ceiling :
>= 8 km
>= 3000ft
5 to 8 km
1000 to 3000 ft
1500m to 5 km
500 to 1000 ft
800 to 1500m
200 to 500 ft
< 800m
< 200 ft
Symbols :   Thunderstorms  Fog  Heavy snow  Heavy precipitations  Wind > 20 kt
SIGMETs :     Misc.  Thunderstorms  Icing  Turbulence  Mountain Waves  Volcanic Ashes







- Airport Elevation : 659 ft
- IATA code : LYN
- Download approach charts


LFLY - Lyon Bron

CURRENT METAR :
  • 190400Z AUTO 12003KT 8000 // NSC 02/01 Q1022

EXPIRED METARs :
  • 190330Z AUTO 00000KT 7000 // NSC 01/M00 Q1022
  • 190300Z AUTO 00000KT 8000 // NSC 02/M00 Q1022
  • 190230Z AUTO 00000KT 7000 // NSC 02/M00 Q1022
  • 190200Z AUTO 00000KT 9999 // NSC 03/00 Q1022
  • 190130Z AUTO 12002KT 9999 // NSC 03/01 Q1022

TAF TAF LFLY
Valid from the 19 at 00:00 until the 20 at 00:00 UTC


182300Z 1900/1924 16006KT CAVOK
BECMG 1901/1903 VRB02KT
TEMPO 1910/1918 02008KT SCT035
ATIS : +33 4 72 15 87 96
No reported NOTAMs for that airfield.



MET'MAP, your aeronautical weather chart ! - Copyright ORBIFLY December 2007 - Disclaimer

ORBIFLY MET'MAP TEAM :

Programming & Development : Alexandra Zaïnal
Concept & Development : Baudouin d'Aumeries
Co-Development & Prog : Marc-Olivier Méhu
Technical & hardware support : Manuel Goepfert

Contact : metmap@orbifly.com




SOURCES & CREDITS :

   NOAA